Time;durP1;ratioP1;P1;durP2;ratioP2;P2;SDS_P1;SDS_P2;PMS_P1;PMS_P2;Temp;Humidity;BMP_temperature;BMP_pressure;BME280_temperature;BME280_humidity;BME280_pressure;Samples;Min_cycle;Max_cycle;Signal;HPM_P1;HPM_P2
2021/11/05 00:00:18;;;;;;;38.30;19.10;;;7.70;99.90;;;;;;4996179;28;20943;-89
2021/11/05 00:02:44;;;;;;;34.13;20.73;;;7.70;99.90;;;;;;4995800;28;20255;-92
2021/11/05 00:05:10;;;;;;;33.13;18.53;;;7.70;99.90;;;;;;4997284;28;20525;-89
2021/11/05 00:07:36;;;;;;;32.57;18.23;;;7.60;99.90;;;;;;4982627;28;20450;-96
2021/11/05 00:10:03;;;;;;;30.17;16.83;;;7.60;99.90;;;;;;4979026;28;20181;-95
2021/11/05 00:12:29;;;;;;;31.43;17.50;;;7.70;99.90;;;;;;4995558;28;20919;-94
2021/11/05 00:14:54;;;;;;;31.60;18.60;;;7.60;99.90;;;;;;4978534;28;20426;-95
2021/11/05 00:17:20;;;;;;;37.13;18.37;;;7.60;99.90;;;;;;4995785;28;20206;-93
2021/11/05 00:19:45;;;;;;;31.43;17.37;;;7.60;99.90;;;;;;4995830;28;20176;-95
2021/11/05 00:22:11;;;;;;;30.90;17.27;;;7.60;99.90;;;;;;4978984;28;20188;-95
2021/11/05 00:24:36;;;;;;;31.10;18.93;;;7.60;99.90;;;;;;4995924;28;20219;-94
2021/11/05 00:27:02;;;;;;;35.80;19.57;;;7.60;99.90;;;;;;4996323;28;20172;-92
2021/11/05 00:29:28;;;;;;;32.53;17.47;;;7.60;99.90;;;;;;4995564;28;20180;-94
2021/11/05 00:31:53;;;;;;;33.03;19.03;;;7.60;99.90;;;;;;4995749;28;20223;-93
2021/11/05 00:34:19;;;;;;;33.43;17.70;;;7.60;99.90;;;;;;4996780;28;20188;-93
2021/11/05 00:36:46;;;;;;;30.57;16.87;;;7.60;99.90;;;;;;4996168;28;20576;-94
2021/11/05 00:39:11;;;;;;;28.63;19.90;;;7.60;99.90;;;;;;4995375;28;20185;-93
2021/11/05 00:41:37;;;;;;;30.10;18.37;;;7.60;99.90;;;;;;4978051;28;20424;-94
2021/11/05 00:44:03;;;;;;;26.20;16.17;;;7.60;99.90;;;;;;4994972;28;20220;-92
2021/11/05 00:46:29;;;;;;;33.07;18.27;;;7.60;99.90;;;;;;4995379;28;20340;-93
2021/11/05 00:48:57;;;;;;;35.23;17.37;;;7.60;99.90;;;;;;4995192;28;20427;-93
2021/11/05 00:51:23;;;;;;;31.23;17.93;;;7.60;99.90;;;;;;4994805;28;20232;-92
2021/11/05 00:53:49;;;;;;;26.40;16.50;;;7.60;99.90;;;;;;4995053;28;20483;-92
2021/11/05 00:56:16;;;;;;;29.70;17.53;;;7.60;99.90;;;;;;4977587;28;20448;-92
2021/11/05 00:58:42;;;;;;;32.13;17.57;;;7.60;99.90;;;;;;4995050;28;20423;-93
2021/11/05 01:01:07;;;;;;;33.00;17.57;;;7.60;99.90;;;;;;4995015;28;20420;-91
2021/11/05 01:03:33;;;;;;;27.33;17.43;;;7.60;99.90;;;;;;4994779;28;20217;-92
2021/11/05 01:05:59;;;;;;;28.93;17.40;;;7.60;99.90;;;;;;4994676;28;20177;-89
2021/11/05 01:08:24;;;;;;;28.23;17.90;;;7.70;99.90;;;;;;4994584;28;20186;-92
2021/11/05 01:10:50;;;;;;;32.63;17.63;;;7.60;99.90;;;;;;4994839;28;20245;-92
2021/11/05 01:13:15;;;;;;;30.17;17.47;;;7.60;99.90;;;;;;4977292;28;20173;-92
2021/11/05 01:15:41;;;;;;;33.50;18.30;;;7.60;99.90;;;;;;4994853;28;20630;-91
2021/11/05 01:18:07;;;;;;;29.60;16.50;;;7.60;99.90;;;;;;4994696;28;20172;-93
2021/11/05 01:20:32;;;;;;;31.53;16.87;;;7.60;99.90;;;;;;4994309;28;20691;-93
2021/11/05 01:22:58;;;;;;;31.30;18.10;;;7.60;99.90;;;;;;4994661;28;20491;-90
2021/11/05 01:25:24;;;;;;;27.47;16.23;;;7.60;99.90;;;;;;4977693;28;20287;-93
2021/11/05 01:27:49;;;;;;;30.30;16.70;;;7.60;99.90;;;;;;4977451;28;20172;-95
2021/11/05 01:30:16;;;;;;;23.13;14.47;;;7.60;99.90;;;;;;4994818;28;20179;-94
2021/11/05 01:32:42;;;;;;;25.50;15.10;;;7.60;99.90;;;;;;4994725;28;20528;-93
2021/11/05 01:35:10;;;;;;;29.63;15.43;;;7.60;99.90;;;;;;4977386;28;20459;-90
2021/11/05 01:37:36;;;;;;;26.20;16.77;;;7.50;99.90;;;;;;4977100;28;20478;-92
2021/11/05 01:40:03;;;;;;;28.53;15.90;;;7.50;99.90;;;;;;4977689;28;20424;-93
2021/11/05 01:42:29;;;;;;;28.80;15.70;;;7.50;99.90;;;;;;4994493;28;20408;-91
2021/11/05 01:44:54;;;;;;;24.57;14.43;;;7.50;99.90;;;;;;4994159;28;20496;-92
2021/11/05 01:47:20;;;;;;;27.97;16.63;;;7.50;99.90;;;;;;4994520;28;20172;-94
2021/11/05 01:49:47;;;;;;;29.60;15.13;;;7.40;99.90;;;;;;4994445;28;20179;-93
2021/11/05 01:52:17;;;;;;;25.70;15.33;;;7.40;99.90;;;;;;4977055;28;20234;-93
2021/11/05 01:54:43;;;;;;;31.40;14.87;;;7.40;99.90;;;;;;4994719;28;20744;-93
2021/11/05 01:57:09;;;;;;;29.97;16.07;;;7.40;99.90;;;;;;4994427;28;20474;-92
2021/11/05 01:59:37;;;;;;;25.63;14.77;;;7.40;99.90;;;;;;4994320;28;20422;-92
2021/11/05 02:02:06;;;;;;;26.50;15.63;;;7.40;99.90;;;;;;4994521;28;20176;-92
2021/11/05 02:04:31;;;;;;;27.00;15.70;;;7.40;99.90;;;;;;4993911;28;20832;-92
2021/11/05 02:06:57;;;;;;;24.93;14.80;;;7.40;99.90;;;;;;4994362;28;20417;-92
2021/11/05 02:09:25;;;;;;;29.60;15.33;;;7.30;99.90;;;;;;4994202;28;20412;-93
2021/11/05 02:11:53;;;;;;;28.77;15.50;;;7.40;99.90;;;;;;4994643;28;20448;-92
2021/11/05 02:14:22;;;;;;;22.87;14.13;;;7.40;99.90;;;;;;4994601;28;20411;-93
2021/11/05 02:16:50;;;;;;;29.13;14.33;;;7.50;99.90;;;;;;4977059;28;20446;-93
2021/11/05 02:19:19;;;;;;;25.00;14.70;;;7.50;99.90;;;;;;4993927;28;20478;-93
2021/11/05 02:21:48;;;;;;;29.10;16.30;;;7.50;99.90;;;;;;4997117;28;20481;-93
2021/11/05 02:24:15;;;;;;;32.53;15.50;;;7.50;99.90;;;;;;4997649;28;20558;-92
2021/11/05 02:26:42;;;;;;;28.27;15.63;;;7.50;99.90;;;;;;4997784;28;20415;-91
2021/11/05 02:29:09;;;;;;;24.47;15.13;;;7.50;99.90;;;;;;4997774;28;20420;-94
2021/11/05 02:31:35;;;;;;;26.90;13.50;;;7.50;99.90;;;;;;4997719;28;20466;-92
2021/11/05 02:34:02;;;;;;;26.60;15.57;;;7.50;99.90;;;;;;4997607;28;20440;-93
2021/11/05 02:36:28;;;;;;;26.17;13.73;;;7.40;99.90;;;;;;4997752;28;20472;-92
2021/11/05 02:38:54;;;;;;;28.23;14.77;;;7.40;99.90;;;;;;4997937;28;20424;-93
2021/11/05 02:41:20;;;;;;;24.93;13.50;;;7.40;99.90;;;;;;4997316;28;20774;-89
2021/11/05 02:43:47;;;;;;;22.20;14.13;;;7.40;99.90;;;;;;4997273;28;20200;-92
2021/11/05 02:46:12;;;;;;;21.63;13.77;;;7.30;99.90;;;;;;4997549;28;20436;-91
2021/11/05 02:48:38;;;;;;;27.90;14.70;;;7.30;99.90;;;;;;4979796;28;20425;-91
2021/11/05 02:51:04;;;;;;;23.67;12.40;;;7.30;99.90;;;;;;4996975;28;20185;-90
2021/11/05 02:53:30;;;;;;;26.27;14.13;;;7.20;99.90;;;;;;4997396;28;20178;-90
2021/11/05 02:55:56;;;;;;;30.23;15.90;;;7.30;99.90;;;;;;4997186;28;20421;-91
2021/11/05 02:58:21;;;;;;;22.77;13.13;;;7.30;99.90;;;;;;4997107;28;20172;-89
2021/11/05 03:00:47;;;;;;;30.13;14.90;;;7.30;99.90;;;;;;4979932;28;20196;-92
2021/11/05 03:03:13;;;;;;;23.97;13.43;;;7.30;99.90;;;;;;4997215;28;20208;-91
2021/11/05 03:05:39;;;;;;;31.87;14.70;;;7.30;99.90;;;;;;4996899;28;20180;-92
2021/11/05 03:08:04;;;;;;;21.20;13.10;;;7.30;99.90;;;;;;4997038;28;20178;-92
2021/11/05 03:10:32;;;;;;;24.67;12.10;;;7.20;99.90;;;;;;4997197;28;20427;-92
2021/11/05 03:12:58;;;;;;;25.90;14.77;;;7.30;99.90;;;;;;4979600;28;20216;-92
2021/11/05 03:15:24;;;;;;;26.23;13.57;;;7.30;99.90;;;;;;4997187;28;20420;-93
2021/11/05 03:17:50;;;;;;;22.27;13.50;;;7.30;99.90;;;;;;4979798;28;20482;-91
2021/11/05 03:20:16;;;;;;;22.73;12.57;;;7.30;99.90;;;;;;4979170;28;20227;-95
2021/11/05 03:22:42;;;;;;;20.60;12.93;;;7.20;99.90;;;;;;4979597;28;20917;-93
2021/11/05 03:25:09;;;;;;;20.10;13.30;;;7.20;99.90;;;;;;4996953;28;20509;-94
2021/11/05 03:27:34;;;;;;;20.57;12.37;;;7.10;99.90;;;;;;4996885;28;20944;-92
2021/11/05 03:30:01;;;;;;;22.20;12.80;;;7.00;99.90;;;;;;4996838;28;20416;-92
2021/11/05 03:32:27;;;;;;;17.40;12.43;;;7.00;99.90;;;;;;4995416;28;20261;-93
2021/11/05 03:34:52;;;;;;;22.37;13.10;;;7.00;99.90;;;;;;4996446;28;20447;-93
2021/11/05 03:37:18;;;;;;;24.03;13.30;;;7.00;99.90;;;;;;4997090;28;20177;-94
2021/11/05 03:39:43;;;;;;;20.80;11.57;;;6.90;99.90;;;;;;4979255;28;20172;-93
2021/11/05 03:42:09;;;;;;;21.67;11.87;;;6.90;99.90;;;;;;4996777;28;20183;-95
2021/11/05 03:44:35;;;;;;;26.53;13.70;;;6.90;99.90;;;;;;4996383;28;20232;-94
2021/11/05 03:47:00;;;;;;;23.60;12.90;;;6.90;99.90;;;;;;4996649;28;20175;-94
2021/11/05 03:49:26;;;;;;;24.53;13.00;;;7.00;99.90;;;;;;4978755;28;20190;-95
2021/11/05 03:51:52;;;;;;;22.30;14.03;;;7.10;99.90;;;;;;4979278;28;20202;-93
2021/11/05 03:54:18;;;;;;;25.70;12.53;;;7.20;99.90;;;;;;4996235;28;20183;-93
2021/11/05 03:56:44;;;;;;;25.17;13.67;;;7.20;99.90;;;;;;4979046;28;20264;-92
2021/11/05 03:59:09;;;;;;;16.93;11.27;;;7.30;99.90;;;;;;4996234;28;20454;-93
2021/11/05 04:01:35;;;;;;;22.80;12.00;;;7.30;99.90;;;;;;4995867;28;20208;-92
2021/11/05 04:04:00;;;;;;;25.10;12.80;;;7.20;99.90;;;;;;4995670;28;20623;-89
2021/11/05 04:06:26;;;;;;;21.97;12.53;;;7.10;99.90;;;;;;4996071;28;20599;-93
2021/11/05 04:08:53;;;;;;;19.50;11.97;;;7.10;99.90;;;;;;4996029;28;20259;-92
2021/11/05 04:11:19;;;;;;;19.00;12.20;;;7.10;99.90;;;;;;4995832;28;20231;-91
2021/11/05 04:13:45;;;;;;;18.70;11.43;;;7.00;99.90;;;;;;4995885;28;20510;-93
2021/11/05 04:16:12;;;;;;;19.90;12.13;;;6.90;99.90;;;;;;4978590;28;20182;-92
2021/11/05 04:18:37;;;;;;;18.67;10.70;;;6.80;99.90;;;;;;4978064;28;20503;-94
2021/11/05 04:21:03;;;;;;;20.20;11.13;;;6.70;99.90;;;;;;4978356;28;20420;-93
2021/11/05 04:23:29;;;;;;;18.20;10.63;;;6.70;99.90;;;;;;4995629;28;20597;-93
2021/11/05 04:25:55;;;;;;;21.70;12.03;;;6.60;99.90;;;;;;4978675;28;20439;-93
2021/11/05 04:28:20;;;;;;;19.20;11.20;;;6.60;99.90;;;;;;4995996;28;20251;-93
2021/11/05 04:30:46;;;;;;;20.80;12.23;;;6.60;99.90;;;;;;4995944;28;20180;-93
2021/11/05 04:33:12;;;;;;;16.50;10.80;;;6.80;99.90;;;;;;4995868;28;20204;-94
2021/11/05 04:35:38;;;;;;;18.97;10.50;;;7.00;99.90;;;;;;4995457;28;20955;-90
2021/11/05 04:38:04;;;;;;;19.37;10.87;;;7.10;99.90;;;;;;4978037;28;20185;-90
2021/11/05 04:40:30;;;;;;;23.00;10.60;;;7.10;99.90;;;;;;4994974;28;20420;-88
2021/11/05 04:42:56;;;;;;;20.07;10.70;;;7.10;99.90;;;;;;4994521;28;20424;-89
2021/11/05 04:45:22;;;;;;;26.37;11.77;;;7.10;99.90;;;;;;4977199;28;20244;-89
2021/11/05 04:47:48;;;;;;;17.40;11.07;;;7.10;99.90;;;;;;4994825;28;20415;-89
2021/11/05 04:50:14;;;;;;;21.47;13.57;;;7.10;99.90;;;;;;4977135;28;20433;-88
2021/11/05 04:52:47;;;;;;;23.50;12.17;;;7.20;99.90;;;;;;4977931;28;20180;-91
2021/11/05 04:55:13;;;;;;;19.20;9.20;;;7.20;99.90;;;;;;4995460;28;20430;-91
2021/11/05 04:57:38;;;;;;;19.03;10.87;;;7.30;99.90;;;;;;4995386;28;20412;-92
2021/11/05 05:00:07;;;;;;;19.50;11.47;;;7.30;99.90;;;;;;4995333;28;20424;-93
2021/11/05 05:02:32;;;;;;;17.80;10.57;;;7.30;99.90;;;;;;4995334;28;20205;-92
2021/11/05 05:04:58;;;;;;;19.43;11.87;;;7.30;99.90;;;;;;4994827;28;20557;-92
2021/11/05 05:07:23;;;;;;;17.80;10.93;;;7.20;99.90;;;;;;4995253;28;20188;-92
2021/11/05 05:09:49;;;;;;;15.80;9.00;;;7.20;99.90;;;;;;4995794;28;20184;-91
2021/11/05 05:12:15;;;;;;;18.10;11.00;;;7.10;99.90;;;;;;4995673;28;20629;-92
2021/11/05 05:14:41;;;;;;;16.07;8.90;;;7.00;99.90;;;;;;4996432;28;20204;-90
2021/11/05 05:17:07;;;;;;;18.27;10.77;;;7.00;99.90;;;;;;4996178;28;20263;-90
2021/11/05 05:19:33;;;;;;;19.30;11.07;;;7.00;99.90;;;;;;5002452;28;20456;-90
2021/11/05 05:21:58;;;;;;;15.87;9.33;;;7.10;99.90;;;;;;4996404;28;20178;-92
2021/11/05 05:24:24;;;;;;;22.10;11.43;;;7.20;99.90;;;;;;4994764;28;20492;-92
2021/11/05 05:26:49;;;;;;;18.97;10.47;;;7.20;99.90;;;;;;4994971;28;20176;-90
2021/11/05 05:29:15;;;;;;;19.70;9.47;;;7.20;99.90;;;;;;4994721;28;20184;-91
2021/11/05 05:31:41;;;;;;;15.20;9.87;;;7.10;99.90;;;;;;4994604;28;20208;-91
2021/11/05 05:34:07;;;;;;;18.00;10.43;;;7.10;99.90;;;;;;4994109;28;20268;-89
2021/11/05 05:36:33;;;;;;;20.07;9.27;;;7.10;99.90;;;;;;4994652;28;20546;-92
2021/11/05 05:38:58;;;;;;;14.80;9.40;;;7.00;99.90;;;;;;4994687;28;20176;-91
2021/11/05 05:41:24;;;;;;;15.97;9.10;;;6.90;99.90;;;;;;4977183;28;20198;-90
2021/11/05 05:43:49;;;;;;;15.00;9.10;;;6.80;99.90;;;;;;4994276;28;20207;-89
2021/11/05 05:46:15;;;;;;;15.27;8.70;;;6.70;99.90;;;;;;4994447;28;20593;-89
2021/11/05 05:48:40;;;;;;;17.07;10.40;;;6.60;99.90;;;;;;4994312;28;20181;-90
2021/11/05 05:51:06;;;;;;;13.13;8.73;;;6.60;99.90;;;;;;4994508;28;20180;-91
2021/11/05 05:53:32;;;;;;;15.60;9.43;;;6.50;99.90;;;;;;4994536;28;20167;-91
2021/11/05 05:55:57;;;;;;;14.40;10.00;;;6.40;99.90;;;;;;4996279;28;20258;-90
2021/11/05 05:58:23;;;;;;;16.13;9.47;;;6.40;99.90;;;;;;4981236;28;20183;-88
2021/11/05 06:00:49;;;;;;;14.20;8.27;;;6.40;99.90;;;;;;4999101;28;20172;-89
2021/11/05 06:03:15;;;;;;;13.00;8.50;;;6.30;99.90;;;;;;4999067;28;20211;-87
2021/11/05 06:05:41;;;;;;;11.13;7.80;;;6.30;99.90;;;;;;4981725;28;20820;-93
2021/11/05 06:08:06;;;;;;;16.80;9.80;;;6.30;99.90;;;;;;5000492;28;20180;-89
2021/11/05 06:10:33;;;;;;;17.70;9.30;;;6.30;99.90;;;;;;4998888;28;20181;-93
2021/11/05 06:12:58;;;;;;;14.53;8.50;;;6.30;99.90;;;;;;4998831;28;20184;-93
2021/11/05 06:15:24;;;;;;;17.80;11.23;;;6.30;99.90;;;;;;4998442;28;20900;-92
2021/11/05 06:17:50;;;;;;;21.00;9.80;;;6.40;99.90;;;;;;4980492;28;20238;-93
2021/11/05 06:20:16;;;;;;;15.90;9.67;;;6.40;99.90;;;;;;4997322;28;20175;-89
2021/11/05 06:22:42;;;;;;;16.83;9.97;;;6.50;99.90;;;;;;4998826;28;20180;-88
2021/11/05 06:25:08;;;;;;;18.00;10.77;;;6.50;99.90;;;;;;5013240;28;20467;-90
2021/11/05 06:27:34;;;;;;;20.60;11.20;;;6.60;99.90;;;;;;4989423;28;20176;-92
2021/11/05 06:30:00;;;;;;;22.73;11.27;;;6.60;99.90;;;;;;4986215;28;20448;-90
2021/11/05 06:32:25;;;;;;;17.77;11.00;;;6.60;99.90;;;;;;5003208;28;20175;-91
2021/11/05 06:34:51;;;;;;;21.33;12.50;;;6.60;99.90;;;;;;5001173;28;20419;-89
2021/11/05 06:37:17;;;;;;;21.20;11.57;;;6.50;99.90;;;;;;4997606;28;20218;-88
2021/11/05 06:39:43;;;;;;;15.87;9.63;;;6.50;99.90;;;;;;4978533;28;20415;-90
2021/11/05 06:42:10;;;;;;;20.00;9.33;;;6.50;99.90;;;;;;4988537;28;20188;-92
2021/11/05 06:44:36;;;;;;;18.20;10.07;;;6.50;99.90;;;;;;4980065;28;20491;-92
2021/11/05 06:47:02;;;;;;;20.57;11.27;;;6.40;99.90;;;;;;4979920;28;20446;-93
2021/11/05 06:49:27;;;;;;;17.87;9.93;;;6.40;99.90;;;;;;4980051;28;20191;-92
2021/11/05 06:51:54;;;;;;;16.57;8.77;;;6.40;99.90;;;;;;4997465;28;20255;-91
2021/11/05 06:54:24;;;;;;;21.73;10.10;;;6.40;99.90;;;;;;4997120;28;20179;-85
2021/11/05 06:56:51;;;;;;;17.03;9.53;;;6.30;99.90;;;;;;4997031;28;20478;-89
2021/11/05 06:59:17;;;;;;;17.73;10.10;;;6.30;99.90;;;;;;4997206;28;20460;-88
2021/11/05 07:01:42;;;;;;;18.47;9.37;;;6.30;99.90;;;;;;4996946;28;20422;-90
2021/11/05 07:04:08;;;;;;;19.63;10.47;;;6.30;99.90;;;;;;4979315;28;21018;-89
2021/11/05 07:06:34;;;;;;;15.87;9.50;;;6.40;99.90;;;;;;4995521;28;20259;-89
2021/11/05 07:09:00;;;;;;;17.40;9.80;;;6.40;99.90;;;;;;4979584;28;21045;-87
2021/11/05 07:11:25;;;;;;;14.23;8.30;;;6.50;99.90;;;;;;4995766;28;20418;-88
2021/11/05 07:13:51;;;;;;;17.83;9.07;;;6.50;99.90;;;;;;4997280;28;20259;-87
2021/11/05 07:16:17;;;;;;;20.27;11.67;;;6.50;99.90;;;;;;4996708;28;20167;-91
2021/11/05 07:18:42;;;;;;;16.20;9.33;;;6.50;99.90;;;;;;4996528;28;20259;-91
2021/11/05 07:21:09;;;;;;;13.77;7.77;;;6.50;99.90;;;;;;4996869;28;20288;-91
2021/11/05 07:23:34;;;;;;;14.67;8.53;;;6.50;99.90;;;;;;4996584;28;20195;-90
2021/11/05 07:26:02;;;;;;;16.20;8.60;;;6.50;99.90;;;;;;4996625;28;20756;-92
2021/11/05 07:28:27;;;;;;;13.07;8.03;;;6.50;99.90;;;;;;4979445;28;20212;-91
2021/11/05 07:30:53;;;;;;;14.73;7.97;;;6.50;99.90;;;;;;4995432;28;20455;-91
2021/11/05 07:33:18;;;;;;;13.73;7.47;;;6.50;99.90;;;;;;4996391;28;20207;-91
2021/11/05 07:35:44;;;;;;;14.43;8.07;;;6.60;99.90;;;;;;4996601;28;20216;-91
2021/11/05 07:38:10;;;;;;;15.60;7.93;;;6.60;99.90;;;;;;4996500;28;20172;-92
2021/11/05 07:40:36;;;;;;;12.37;8.00;;;6.80;99.90;;;;;;4996141;28;20181;-91
2021/11/05 07:43:01;;;;;;;14.57;7.93;;;7.00;99.90;;;;;;4995253;28;20427;-91
2021/11/05 07:45:27;;;;;;;15.13;9.00;;;7.00;99.90;;;;;;4995321;28;20224;-92
2021/11/05 07:47:56;;;;;;;12.73;7.30;;;7.10;99.90;;;;;;4996125;28;20175;-88
2021/11/05 07:50:32;;;;;;;14.90;8.53;;;7.30;99.90;;;;;;4996350;28;20215;-91
2021/11/05 07:53:01;;;;;;;12.37;7.80;;;7.60;99.90;;;;;;4994406;28;20435;-88
2021/11/05 07:55:28;;;;;;;14.00;7.63;;;7.70;99.90;;;;;;4981293;28;20435;-90
2021/11/05 07:57:54;;;;;;;12.77;8.03;;;7.90;99.90;;;;;;4995967;28;20781;-89
2021/11/05 08:00:20;;;;;;;11.63;6.70;;;8.00;99.90;;;;;;4996009;28;20430;-90
2021/11/05 08:02:45;;;;;;;11.10;6.80;;;8.20;99.90;;;;;;4995687;28;20176;-90
2021/11/05 08:05:12;;;;;;;13.03;7.20;;;8.30;99.90;;;;;;4995459;28;20219;-89
2021/11/05 08:07:39;;;;;;;10.77;7.30;;;8.40;99.90;;;;;;4995762;28;20375;-89
2021/11/05 08:10:05;;;;;;;13.07;7.27;;;8.50;99.90;;;;;;4977446;28;20435;-88
2021/11/05 08:12:30;;;;;;;8.23;5.77;;;8.60;99.90;;;;;;4995244;28;20526;-89
2021/11/05 08:14:56;;;;;;;9.33;6.07;;;8.80;99.90;;;;;;4995034;28;20431;-88
2021/11/05 08:17:22;;;;;;;9.93;7.23;;;8.80;99.90;;;;;;4993666;28;20179;-87
2021/11/05 08:19:50;;;;;;;8.10;6.40;;;8.90;99.90;;;;;;4994184;28;20695;-89
2021/11/05 08:22:17;;;;;;;9.30;7.03;;;9.00;99.90;;;;;;4994580;28;20183;-88
2021/11/05 08:24:44;;;;;;;10.90;6.40;;;9.00;99.90;;;;;;4994825;28;20474;-88
2021/11/05 08:27:09;;;;;;;9.20;4.87;;;9.00;99.90;;;;;;4994718;28;20450;-88
2021/11/05 08:29:35;;;;;;;7.97;5.60;;;8.90;99.90;;;;;;4994749;28;20496;-88
2021/11/05 08:32:01;;;;;;;8.87;5.43;;;8.90;99.90;;;;;;4994617;28;20571;-88
2021/11/05 08:34:26;;;;;;;6.93;4.80;;;9.00;99.90;;;;;;4994366;28;20200;-88
2021/11/05 08:36:53;;;;;;;9.67;5.83;;;9.10;99.90;;;;;;4994673;28;20628;-88
2021/11/05 08:39:19;;;;;;;12.70;6.40;;;9.20;99.90;;;;;;4995457;28;20179;-90
2021/11/05 08:41:44;;;;;;;7.60;4.37;;;9.20;99.90;;;;;;4994872;28;20412;-90
2021/11/05 08:44:11;;;;;;;8.73;5.33;;;9.30;99.90;;;;;;4994347;28;20493;-89
2021/11/05 08:46:37;;;;;;;7.93;4.97;;;9.30;99.90;;;;;;4993523;28;20191;-89
2021/11/05 08:49:12;;;;;;;6.03;4.13;;;9.30;99.90;;;;;;4994396;28;20443;-89
2021/11/05 08:51:44;;;;;;;9.43;4.90;;;9.40;99.90;;;;;;4994535;28;20415;-90
2021/11/05 08:54:11;;;;;;;8.20;4.07;;;9.50;99.90;;;;;;4994694;28;20423;-90
2021/11/05 08:56:37;;;;;;;6.80;4.07;;;9.60;99.90;;;;;;4994682;28;20416;-89
2021/11/05 08:59:04;;;;;;;6.00;4.27;;;9.70;99.90;;;;;;4977201;28;20423;-88
2021/11/05 09:01:30;;;;;;;9.17;5.03;;;9.80;99.90;;;;;;4993169;28;20524;-88
2021/11/05 09:03:56;;;;;;;7.33;4.07;;;9.90;99.90;;;;;;4992782;28;20490;-90
2021/11/05 09:06:22;;;;;;;7.83;4.10;;;9.80;99.90;;;;;;4976983;28;20827;-89
2021/11/05 09:08:52;;;;;;;6.03;4.03;;;9.60;99.90;;;;;;4994345;28;20454;-90
2021/11/05 09:11:17;;;;;;;9.93;4.37;;;9.70;99.90;;;;;;4994488;28;20192;-89
2021/11/05 09:13:43;;;;;;;7.40;4.07;;;9.80;99.90;;;;;;4994265;28;20457;-89
2021/11/05 09:16:09;;;;;;;5.30;3.57;;;9.80;99.90;;;;;;4994141;28;20181;-89
2021/11/05 09:18:34;;;;;;;7.17;3.50;;;9.70;99.90;;;;;;4994008;28;20242;-89
2021/11/05 09:21:01;;;;;;;6.40;3.20;;;9.70;99.90;;;;;;4993129;28;20203;-91
2021/11/05 09:23:27;;;;;;;5.20;3.27;;;9.80;99.90;;;;;;4993969;28;20216;-89
2021/11/05 09:25:54;;;;;;;5.00;2.53;;;9.90;99.90;;;;;;4994480;28;20808;-89
2021/11/05 09:28:20;;;;;;;5.20;2.57;;;10.10;99.90;;;;;;4994170;28;20416;-90
2021/11/05 09:30:49;;;;;;;6.87;2.90;;;10.10;99.90;;;;;;4993141;28;20840;-89
2021/11/05 09:33:14;;;;;;;4.33;1.43;;;10.30;99.90;;;;;;4994087;28;20466;-88
2021/11/05 09:35:40;;;;;;;9.83;2.70;;;10.50;99.90;;;;;;4991337;28;20458;-87
2021/11/05 09:38:06;;;;;;;3.07;1.47;;;10.80;99.90;;;;;;4991262;28;20199;-87
2021/11/05 09:40:32;;;;;;;4.57;2.60;;;11.10;99.90;;;;;;4993324;28;20673;-89
2021/11/05 09:42:59;;;;;;;3.40;1.80;;;11.20;99.90;;;;;;4993828;28;20516;-90
2021/11/05 09:45:30;;;;;;;4.70;1.70;;;11.40;99.90;;;;;;4993848;28;20218;-88
2021/11/05 09:47:57;;;;;;;3.17;1.80;;;11.80;99.90;;;;;;4993770;28;20416;-88
2021/11/05 09:50:27;;;;;;;6.83;1.80;;;12.30;99.90;;;;;;4976723;28;20822;-89
2021/11/05 09:52:52;;;;;;;5.73;2.17;;;12.10;99.90;;;;;;4994808;28;20399;-88
2021/11/05 09:55:19;;;;;;;1.60;0.83;;;11.70;99.90;;;;;;4993667;28;20921;-88
2021/11/05 09:57:45;;;;;;;1.90;1.13;;;11.50;99.90;;;;;;4993729;28;20755;-88
2021/11/05 10:00:17;;;;;;;4.60;1.47;;;11.40;99.90;;;;;;4993745;28;20460;-89
2021/11/05 10:02:44;;;;;;;2.63;0.97;;;11.50;99.90;;;;;;4993577;28;20637;-85
2021/11/05 10:05:11;;;;;;;1.20;0.83;;;11.50;99.90;;;;;;4993498;28;20905;-86
2021/11/05 10:07:48;;;;;;;3.30;1.47;;;11.50;99.90;;;;;;4993773;28;20442;-87
2021/11/05 10:10:14;;;;;;;2.50;1.17;;;11.50;99.90;;;;;;4975867;28;20930;-89
2021/11/05 10:12:56;;;;;;;6.67;1.07;;;11.60;99.90;;;;;;4992752;28;20832;-90
2021/11/05 10:15:27;;;;;;;3.97;1.90;;;11.80;99.90;;;;;;4976310;28;20437;-89
2021/11/05 10:18:18;;;;;;;1.80;0.67;;;12.00;99.90;;;;;;4993121;28;20894;-89
2021/11/05 10:20:46;;;;;;;3.57;1.20;;;12.00;99.90;;;;;;4990501;28;20415;-90
2021/11/05 10:23:13;;;;;;;5.23;1.70;;;12.00;99.90;;;;;;4993399;28;20457;-85
2021/11/05 10:25:45;;;;;;;2.70;1.07;;;12.10;99.90;;;;;;4994171;28;20419;-90
2021/11/05 10:28:25;;;;;;;3.23;0.87;;;12.10;99.90;;;;;;4993983;28;20423;-89
2021/11/05 10:30:53;;;;;;;5.40;1.60;;;12.40;99.90;;;;;;4994863;28;20442;-92
2021/11/05 10:33:21;;;;;;;6.10;1.33;;;12.60;99.90;;;;;;4993680;28;20407;-91
2021/11/05 10:35:49;;;;;;;2.50;1.00;;;12.40;99.90;;;;;;4994286;28;20768;-92
2021/11/05 10:38:16;;;;;;;5.00;0.90;;;12.60;99.90;;;;;;4994671;28;20495;-91
2021/11/05 10:40:48;;;;;;;6.20;0.83;;;12.70;99.90;;;;;;4994247;28;20417;-91
2021/11/05 10:43:27;;;;;;;3.13;0.53;;;12.60;99.90;;;;;;4980465;28;20411;-92
2021/11/05 10:45:53;;;;;;;6.37;0.70;;;12.40;99.90;;;;;;4997380;28;21025;-87
2021/11/05 10:48:19;;;;;;;3.90;0.37;;;12.30;99.90;;;;;;4997451;28;20416;-92
2021/11/05 10:51:01;;;;;;;17.10;2.70;;;12.20;99.90;;;;;;4997450;28;20168;-92
2021/11/05 10:53:38;;;;;;;5.33;0.50;;;12.10;99.90;;;;;;4979835;28;20458;-92
2021/11/05 10:56:12;;;;;;;4.53;0.57;;;12.10;99.90;;;;;;4997819;28;20490;-94
2021/11/05 10:58:40;;;;;;;3.03;0.30;;;12.10;99.90;;;;;;4997530;28;20856;-92
2021/11/05 11:01:08;;;;;;;1.53;0.30;;;12.10;99.90;;;;;;4997413;28;20770;-92
2021/11/05 11:03:38;;;;;;;4.50;1.07;;;12.00;99.90;;;;;;4996833;28;20493;-92
2021/11/05 11:06:08;;;;;;;1.73;0.57;;;12.00;99.90;;;;;;4979902;28;20423;-89
2021/11/05 11:08:39;;;;;;;3.07;0.20;;;11.90;99.90;;;;;;4981524;28;20915;-91
2021/11/05 11:11:28;;;;;;;1.87;0.40;;;11.90;99.90;;;;;;4977665;28;20532;-92
2021/11/05 11:14:18;;;;;;;2.13;0.30;;;11.90;99.90;;;;;;4977273;28;21000;-91
2021/11/05 11:16:43;;;;;;;1.57;0.80;;;11.90;99.90;;;;;;4976310;28;20456;-92
2021/11/05 11:19:17;;;;;;;1.73;0.40;;;12.00;99.90;;;;;;4976022;28;20466;-93
2021/11/05 11:21:46;;;;;;;0.70;0.40;;;12.00;99.90;;;;;;4977795;28;20210;-91
2021/11/05 11:24:15;;;;;;;1.80;0.20;;;12.00;99.90;;;;;;4976223;28;20471;-93
2021/11/05 11:26:42;;;;;;;3.30;0.20;;;12.10;99.90;;;;;;4976127;28;20454;-92
2021/11/05 11:29:09;;;;;;;3.63;0.93;;;12.20;99.90;;;;;;4977035;28;20527;-92
2021/11/05 11:31:40;;;;;;;1.67;0.73;;;12.40;99.90;;;;;;4977196;28;20430;-92
2021/11/05 11:34:07;;;;;;;2.50;0.20;;;12.50;99.90;;;;;;4975614;28;20427;-94
2021/11/05 11:36:39;;;;;;;1.47;0.20;;;12.60;99.90;;;;;;4975945;28;20422;-91
2021/11/05 11:39:10;;;;;;;4.70;2.10;;;12.50;99.90;;;;;;4977232;28;20741;-90
2021/11/05 11:41:37;;;;;;;4.10;0.30;;;12.50;99.90;;;;;;4976197;28;20416;-92
2021/11/05 11:44:04;;;;;;;2.47;0.30;;;12.50;99.90;;;;;;4980736;28;20506;-92
2021/11/05 11:47:08;;;;;;;5.90;0.40;;;12.50;99.90;;;;;;4995296;28;20518;-91
2021/11/05 11:49:41;;;;;;;1.80;0.40;;;12.60;99.90;;;;;;4996023;28;20421;-90
2021/11/05 11:52:19;;;;;;;3.07;1.60;;;12.60;99.90;;;;;;4995314;28;20427;-91
2021/11/05 11:54:54;;;;;;;1.63;0.47;;;12.70;99.90;;;;;;4995618;28;20415;-91
2021/11/05 11:57:31;;;;;;;0.60;0.20;;;12.70;99.90;;;;;;4996399;28;20434;-90
2021/11/05 12:00:23;;;;;;;0.83;0.20;;;12.80;99.90;;;;;;4981652;28;20431;-91
2021/11/05 12:03:00;;;;;;;2.00;0.50;;;12.90;99.90;;;;;;4978641;28;20468;-92
2021/11/05 12:05:31;;;;;;;6.67;0.70;;;12.80;99.90;;;;;;4995243;28;20447;-92
2021/11/05 12:08:19;;;;;;;2.30;0.30;;;12.80;99.90;;;;;;4996535;28;20407;-93
2021/11/05 12:10:48;;;;;;;1.70;0.30;;;13.30;99.90;;;;;;4986182;28;20975;-91
2021/11/05 12:13:32;;;;;;;0.90;0.23;;;16.20;99.90;;;;;;4984038;28;20423;-93
2021/11/05 12:16:21;;;;;;;2.40;0.70;;;19.10;99.90;;;;;;4959179;28;20569;-92
2021/11/05 12:19:06;;;;;;;4.23;0.60;;;18.90;99.90;;;;;;4958452;28;20429;-90
2021/11/05 12:21:35;;;;;;;3.90;0.43;;;15.70;99.90;;;;;;4960792;28;20434;-87
2021/11/05 12:24:15;;;;;;;1.70;0.43;;;15.00;99.90;;;;;;4976927;28;20557;-88
2021/11/05 12:26:41;;;;;;;2.93;0.37;;;14.10;99.90;;;;;;4994187;28;20406;-89
2021/11/05 12:29:07;;;;;;;2.27;0.20;;;13.80;99.90;;;;;;4994488;28;20945;-87
2021/11/05 12:31:36;;;;;;;0.60;0.20;;;13.40;99.90;;;;;;4994531;28;20414;-88
2021/11/05 12:34:19;;;;;;;2.87;0.30;;;13.30;99.90;;;;;;4993937;28;20263;-88
2021/11/05 12:36:46;;;;;;;2.33;0.20;;;13.30;99.90;;;;;;4976781;28;20949;-87
2021/11/05 12:39:12;;;;;;;3.00;0.40;;;13.20;99.90;;;;;;4976742;28;21002;-86
2021/11/05 12:41:59;;;;;;;1.33;0.57;;;13.20;99.90;;;;;;4976441;28;20413;-86
2021/11/05 12:44:27;;;;;;;2.37;0.27;;;13.00;99.90;;;;;;4980101;28;21092;-90